Details From EPKK - Balice
To EDDB - Berlin Schoenefeld
Flight Number -
Tags Generated
Created
Modified
Stats Distance 273 nm / 505 km
Max Altitude 0 ft / 0 m
Waypoints 3
Social Downloads 2
Likes 0
Share VATSIM

Download

Looking for another format? Having issues loading an existing format? Contact us
Advertisement - Login to hide

Notes

Generated

Route

EPKK DB440 EDDB

ID Type Via Altitude Latitude Longitude Leg Dist Tot Dist Heading (true) Name
O EPKK APT - 0 ft / 0 m 50.07540˚ 19.76809˚ - 0 nm - -
DB440 FIX - 0 ft / 0 m 52.32847˚ 13.69666˚ 265 nm 265 nm 303° / 298° -
O EDDB APT - 0 ft / 0 m 52.38012˚ 13.51714˚ 7 nm 272 nm 295° / 295° Berlin Schoenefeld

Altitude Profile

Advertisement - Login to hide

Weather


0- 5 10 15 20 25 30 35+ Temperature / ° C

Clouds and Precipitation
Forecast for 2017-08-19 06:00 UTC. Updated 19 minutes ago

Ground ~20,000 ft ~40,000 ft Winds

EPKK

Details ICAO EPKK (KRK)
Name BALICE
Region Poland
Timezone Europe/Warsaw (UTC+2.0)
Stats Elevation 791 ft / 241 m (AMSL)
Location 50.077821° 19.785503°
Runways 1
Magnetic Variation 5.162° E

METAR

EPKK 190130Z 06003KT CAVOK 17/15 Q1013

Decode

TAF

TAF EPKK 182330Z 1900/1924 VRB02KT CAVOK BECMG 1909/1912 28012KT BKN014 PROB40 TEMPO 1912/1917 VRB18G35KT 4000 TSRA BKN014CB BECMG 1917/1919 VRB02KT 4000 RA BR BKN008 TEMPO 1919/1924 2000 RA BR BKN003 OVC008

Decode

Departure Runways

ID Width Length Bearing (true) Bearing (mag) Surface Threshold Offset Overrun Length
07 197 ft / 60 m 8,343 ft / 2,543 m 77.75° 72.59° Concrete 0 ft / 0 m 0 ft / 0 m
25 197 ft / 60 m 8,343 ft / 2,543 m 257.77° 252.61° Concrete 784 ft / 239 m 0 ft / 0 m

EDDB

Details ICAO EDDB (BER)
Name Berlin Schoenefeld
Region Germany - Civil
Timezone Europe/Berlin (UTC+2.0)
Stats Elevation 157 ft / 48 m (AMSL)
Location 52.378541° 13.520629°
Runways 2
Magnetic Variation 3.764° E

METAR

EDDB 190120Z 23006KT 9999 FEW005 SCT130 BKN250 16/16 Q1012 NOSIG

Decode

TAF

TAF TAF EDDB 182300Z 1900/1924 24007KT 9999 BKN030 PROB30 TEMPO 1900/1906 BKN010 BECMG 1906/1908 24012KT BECMG 1916/1918 25007KT

Decode

Destination Runways

ID Width Length Bearing (true) Bearing (mag) Surface Threshold Offset Overrun Length
07 148 ft / 45 m 9,817 ft / 2,992 m 68.75° 64.99° Asphalt 0 ft / 0 m 984 ft / 300 m
07L 148 ft / 45 m 8,867 ft / 2,703 m 68.77° 65.01° Concrete 0 ft / 0 m 525 ft / 160 m
25 148 ft / 45 m 9,817 ft / 2,992 m 248.78° 245.02° Asphalt 0 ft / 0 m 984 ft / 300 m
25R 148 ft / 45 m 8,867 ft / 2,703 m 248.80° 245.04° Concrete 0 ft / 0 m 984 ft / 300 m

Approach Navaids

Runway Type Ident Frequency Range Bearing (true) Bearing (mag) Slope Elevation
07 Localiser ISSE 110.70 MHz 18 nm / 33 km 68.79° 65.03° - 157 ft / 48 m (AMSL)
07 Glidescope ISSE 110.70 MHz 10 nm / 19 km 68.77° 65.00° 3.00° 157 ft / 48 m (AMSL)
25 Localiser ISSW 109.90 MHz 18 nm / 33 km 248.75° 244.99° - 157 ft / 48 m (AMSL)
25 Glidescope ISSW 109.90 MHz 10 nm / 19 km 248.77° 245.00° 3.00° 157 ft / 48 m (AMSL)

Popular Alternatives